sensor_id;sensor_type;location;lat;lon;timestamp;temperature;humidity
54930;DHT22;40833;53.238;6.576;2022-07-04T00:00:46;12.90;99.90
54930;DHT22;40833;53.238;6.576;2022-07-04T00:03:12;12.90;99.90
54930;DHT22;40833;53.238;6.576;2022-07-04T00:05:37;12.90;99.90
54930;DHT22;40833;53.238;6.576;2022-07-04T00:08:03;12.90;99.90
54930;DHT22;40833;53.238;6.576;2022-07-04T00:10:29;12.90;99.90
54930;DHT22;40833;53.238;6.576;2022-07-04T00:12:55;13.10;99.90
54930;DHT22;40833;53.238;6.576;2022-07-04T00:15:20;12.90;99.90
54930;DHT22;40833;53.238;6.576;2022-07-04T00:17:46;12.80;99.90
54930;DHT22;40833;53.238;6.576;2022-07-04T00:20:12;12.80;99.90
54930;DHT22;40833;53.238;6.576;2022-07-04T00:22:38;12.80;99.90
54930;DHT22;40833;53.238;6.576;2022-07-04T00:25:04;12.80;99.90
54930;DHT22;40833;53.238;6.576;2022-07-04T00:27:30;12.80;99.90
54930;DHT22;40833;53.238;6.576;2022-07-04T00:29:55;12.80;99.90
54930;DHT22;40833;53.238;6.576;2022-07-04T00:32:21;12.80;99.90
54930;DHT22;40833;53.238;6.576;2022-07-04T00:34:47;12.80;99.90
54930;DHT22;40833;53.238;6.576;2022-07-04T00:37:13;12.90;99.90
54930;DHT22;40833;53.238;6.576;2022-07-04T00:39:38;12.90;99.90
54930;DHT22;40833;53.238;6.576;2022-07-04T00:42:04;12.80;99.90
54930;DHT22;40833;53.238;6.576;2022-07-04T00:44:31;12.90;99.90
54930;DHT22;40833;53.238;6.576;2022-07-04T00:46:57;12.80;99.90
54930;DHT22;40833;53.238;6.576;2022-07-04T00:49:23;12.80;99.90
54930;DHT22;40833;53.238;6.576;2022-07-04T00:51:49;12.80;99.90
54930;DHT22;40833;53.238;6.576;2022-07-04T00:54:16;12.80;99.90
54930;DHT22;40833;53.238;6.576;2022-07-04T00:56:46;12.80;99.90
54930;DHT22;40833;53.238;6.576;2022-07-04T00:59:12;12.80;99.90
54930;DHT22;40833;53.238;6.576;2022-07-04T01:01:38;12.70;99.90
54930;DHT22;40833;53.238;6.576;2022-07-04T01:04:05;12.70;99.90
54930;DHT22;40833;53.238;6.576;2022-07-04T01:06:31;12.70;99.90
54930;DHT22;40833;53.238;6.576;2022-07-04T01:08:57;12.70;99.90
54930;DHT22;40833;53.238;6.576;2022-07-04T01:11:23;12.70;99.90
54930;DHT22;40833;53.238;6.576;2022-07-04T01:13:49;12.60;99.90
54930;DHT22;40833;53.238;6.576;2022-07-04T01:16:15;12.60;99.90
54930;DHT22;40833;53.238;6.576;2022-07-04T01:18:41;14.20;99.90
54930;DHT22;40833;53.238;6.576;2022-07-04T01:21:07;12.60;99.90
54930;DHT22;40833;53.238;6.576;2022-07-04T01:23:42;12.60;99.90
54930;DHT22;40833;53.238;6.576;2022-07-04T01:26:08;12.60;99.90
54930;DHT22;40833;53.238;6.576;2022-07-04T01:28:34;12.50;99.90
54930;DHT22;40833;53.238;6.576;2022-07-04T01:31:01;12.50;99.90
54930;DHT22;40833;53.238;6.576;2022-07-04T01:33:26;12.50;99.90
54930;DHT22;40833;53.238;6.576;2022-07-04T01:35:52;12.50;99.90
54930;DHT22;40833;53.238;6.576;2022-07-04T01:38:18;12.50;99.90
54930;DHT22;40833;53.238;6.576;2022-07-04T01:40:43;12.40;99.90
54930;DHT22;40833;53.238;6.576;2022-07-04T01:43:09;12.40;99.90
54930;DHT22;40833;53.238;6.576;2022-07-04T01:45:35;12.40;99.90
54930;DHT22;40833;53.238;6.576;2022-07-04T01:48:12;12.30;99.90
54930;DHT22;40833;53.238;6.576;2022-07-04T01:50:39;12.40;99.90
54930;DHT22;40833;53.238;6.576;2022-07-04T01:53:04;12.30;99.90
54930;DHT22;40833;53.238;6.576;2022-07-04T01:55:30;12.30;99.90
54930;DHT22;40833;53.238;6.576;2022-07-04T01:57:56;12.30;99.90
54930;DHT22;40833;53.238;6.576;2022-07-04T02:00:22;12.30;99.90
54930;DHT22;40833;53.238;6.576;2022-07-04T02:03:06;12.30;99.90
54930;DHT22;40833;53.238;6.576;2022-07-04T02:05:32;12.20;99.90
54930;DHT22;40833;53.238;6.576;2022-07-04T02:07:59;12.20;99.90
54930;DHT22;40833;53.238;6.576;2022-07-04T02:10:25;12.20;99.90
54930;DHT22;40833;53.238;6.576;2022-07-04T02:12:51;12.20;99.90
54930;DHT22;40833;53.238;6.576;2022-07-04T02:15:32;12.20;99.90
54930;DHT22;40833;53.238;6.576;2022-07-04T02:17:58;12.20;99.90
54930;DHT22;40833;53.238;6.576;2022-07-04T02:20:24;12.20;99.90
54930;DHT22;40833;53.238;6.576;2022-07-04T02:22:50;12.20;99.90
54930;DHT22;40833;53.238;6.576;2022-07-04T02:25:16;12.20;99.90
54930;DHT22;40833;53.238;6.576;2022-07-04T02:27:42;12.10;99.90
54930;DHT22;40833;53.238;6.576;2022-07-04T02:30:08;12.30;99.90
54930;DHT22;40833;53.238;6.576;2022-07-04T02:32:34;12.10;99.90
54930;DHT22;40833;53.238;6.576;2022-07-04T02:35:00;12.10;99.90
54930;DHT22;40833;53.238;6.576;2022-07-04T02:37:26;12.10;99.90
54930;DHT22;40833;53.238;6.576;2022-07-04T02:39:52;12.10;99.90
54930;DHT22;40833;53.238;6.576;2022-07-04T02:42:17;12.10;99.90
54930;DHT22;40833;53.238;6.576;2022-07-04T02:44:43;12.10;99.90
54930;DHT22;40833;53.238;6.576;2022-07-04T02:47:09;12.50;99.90
54930;DHT22;40833;53.238;6.576;2022-07-04T02:49:35;12.10;99.90
54930;DHT22;40833;53.238;6.576;2022-07-04T02:52:01;12.10;99.90
54930;DHT22;40833;53.238;6.576;2022-07-04T02:54:26;12.10;99.90
54930;DHT22;40833;53.238;6.576;2022-07-04T02:56:52;12.10;99.90
54930;DHT22;40833;53.238;6.576;2022-07-04T02:59:18;12.10;99.90
54930;DHT22;40833;53.238;6.576;2022-07-04T03:01:43;12.10;99.90
54930;DHT22;40833;53.238;6.576;2022-07-04T03:04:09;12.10;99.90
54930;DHT22;40833;53.238;6.576;2022-07-04T03:06:34;13.70;99.90
54930;DHT22;40833;53.238;6.576;2022-07-04T03:09:00;12.10;99.90
54930;DHT22;40833;53.238;6.576;2022-07-04T03:11:26;12.30;99.90
54930;DHT22;40833;53.238;6.576;2022-07-04T03:13:51;12.10;99.90
54930;DHT22;40833;53.238;6.576;2022-07-04T03:16:17;12.10;99.90
54930;DHT22;40833;53.238;6.576;2022-07-04T03:18:43;12.10;99.90
54930;DHT22;40833;53.238;6.576;2022-07-04T03:21:08;12.10;99.90
54930;DHT22;40833;53.238;6.576;2022-07-04T03:23:34;12.10;99.90
54930;DHT22;40833;53.238;6.576;2022-07-04T03:26:00;13.10;99.90
54930;DHT22;40833;53.238;6.576;2022-07-04T03:28:27;12.20;99.90
54930;DHT22;40833;53.238;6.576;2022-07-04T03:30:53;12.20;99.90
54930;DHT22;40833;53.238;6.576;2022-07-04T03:33:19;12.20;99.90
54930;DHT22;40833;53.238;6.576;2022-07-04T03:35:45;12.20;99.90
54930;DHT22;40833;53.238;6.576;2022-07-04T03:38:11;12.20;99.90
54930;DHT22;40833;53.238;6.576;2022-07-04T03:40:36;12.20;99.90
54930;DHT22;40833;53.238;6.576;2022-07-04T03:43:04;12.20;99.90
54930;DHT22;40833;53.238;6.576;2022-07-04T03:45:33;12.20;99.90
54930;DHT22;40833;53.238;6.576;2022-07-04T03:47:59;12.20;99.90
54930;DHT22;40833;53.238;6.576;2022-07-04T03:50:27;12.30;99.90
54930;DHT22;40833;53.238;6.576;2022-07-04T03:52:53;12.30;99.90
54930;DHT22;40833;53.238;6.576;2022-07-04T03:55:19;12.30;99.90
54930;DHT22;40833;53.238;6.576;2022-07-04T03:57:45;12.30;99.90
54930;DHT22;40833;53.238;6.576;2022-07-04T04:00:11;12.30;99.90
54930;DHT22;40833;53.238;6.576;2022-07-04T04:02:37;12.30;99.90
54930;DHT22;40833;53.238;6.576;2022-07-04T04:05:04;12.30;99.90
54930;DHT22;40833;53.238;6.576;2022-07-04T04:07:49;12.40;99.90
54930;DHT22;40833;53.238;6.576;2022-07-04T04:10:14;12.40;99.90
54930;DHT22;40833;53.238;6.576;2022-07-04T04:12:40;12.40;99.90
54930;DHT22;40833;53.238;6.576;2022-07-04T04:15:06;12.40;99.90
54930;DHT22;40833;53.238;6.576;2022-07-04T04:17:32;12.50;99.90
54930;DHT22;40833;53.238;6.576;2022-07-04T04:19:58;12.50;99.90
54930;DHT22;40833;53.238;6.576;2022-07-04T04:22:23;12.60;99.90
54930;DHT22;40833;53.238;6.576;2022-07-04T04:24:49;12.50;99.90
54930;DHT22;40833;53.238;6.576;2022-07-04T04:27:14;12.60;99.90
54930;DHT22;40833;53.238;6.576;2022-07-04T04:29:40;12.60;99.90
54930;DHT22;40833;53.238;6.576;2022-07-04T04:32:06;12.70;99.90
54930;DHT22;40833;53.238;6.576;2022-07-04T04:34:32;12.80;99.90
54930;DHT22;40833;53.238;6.576;2022-07-04T04:36:59;12.80;99.90
54930;DHT22;40833;53.238;6.576;2022-07-04T04:39:25;12.90;99.90
54930;DHT22;40833;53.238;6.576;2022-07-04T04:41:51;12.90;99.90
54930;DHT22;40833;53.238;6.576;2022-07-04T04:44:16;13.00;99.90
54930;DHT22;40833;53.238;6.576;2022-07-04T04:46:42;13.00;99.90
54930;DHT22;40833;53.238;6.576;2022-07-04T04:49:08;13.00;99.90
54930;DHT22;40833;53.238;6.576;2022-07-04T04:51:33;13.10;99.90
54930;DHT22;40833;53.238;6.576;2022-07-04T04:53:59;13.10;99.90
54930;DHT22;40833;53.238;6.576;2022-07-04T04:56:25;13.10;99.90
54930;DHT22;40833;53.238;6.576;2022-07-04T04:58:50;13.10;99.90
54930;DHT22;40833;53.238;6.576;2022-07-04T05:01:16;13.20;99.90
54930;DHT22;40833;53.238;6.576;2022-07-04T05:03:42;13.20;99.90
54930;DHT22;40833;53.238;6.576;2022-07-04T05:06:07;13.20;99.90
54930;DHT22;40833;53.238;6.576;2022-07-04T05:08:33;13.30;99.90
54930;DHT22;40833;53.238;6.576;2022-07-04T05:10:59;13.30;99.90
54930;DHT22;40833;53.238;6.576;2022-07-04T05:13:24;13.40;99.90
54930;DHT22;40833;53.238;6.576;2022-07-04T05:15:50;13.40;99.90
54930;DHT22;40833;53.238;6.576;2022-07-04T05:18:16;13.60;99.90
54930;DHT22;40833;53.238;6.576;2022-07-04T05:20:42;13.70;99.90
54930;DHT22;40833;53.238;6.576;2022-07-04T05:23:08;13.90;99.90
54930;DHT22;40833;53.238;6.576;2022-07-04T05:25:34;14.10;99.90
54930;DHT22;40833;53.238;6.576;2022-07-04T05:27:59;14.10;99.90
54930;DHT22;40833;53.238;6.576;2022-07-04T05:30:25;14.30;99.90
54930;DHT22;40833;53.238;6.576;2022-07-04T05:32:51;14.30;99.90
54930;DHT22;40833;53.238;6.576;2022-07-04T05:35:17;14.50;99.90
54930;DHT22;40833;53.238;6.576;2022-07-04T05:37:42;14.40;99.90
54930;DHT22;40833;53.238;6.576;2022-07-04T05:40:09;14.40;99.90
54930;DHT22;40833;53.238;6.576;2022-07-04T05:42:36;14.40;99.90
54930;DHT22;40833;53.238;6.576;2022-07-04T05:45:02;14.40;99.90
54930;DHT22;40833;53.238;6.576;2022-07-04T05:47:28;14.40;99.90
54930;DHT22;40833;53.238;6.576;2022-07-04T05:49:53;14.40;99.90
54930;DHT22;40833;53.238;6.576;2022-07-04T05:52:19;14.50;99.90
54930;DHT22;40833;53.238;6.576;2022-07-04T05:54:45;14.70;99.90
54930;DHT22;40833;53.238;6.576;2022-07-04T05:57:11;14.80;99.90
54930;DHT22;40833;53.238;6.576;2022-07-04T05:59:36;14.80;99.90
54930;DHT22;40833;53.238;6.576;2022-07-04T06:02:03;14.90;99.90
54930;DHT22;40833;53.238;6.576;2022-07-04T06:04:28;15.00;99.90
54930;DHT22;40833;53.238;6.576;2022-07-04T06:06:54;15.10;99.90
54930;DHT22;40833;53.238;6.576;2022-07-04T06:09:20;15.10;99.90
54930;DHT22;40833;53.238;6.576;2022-07-04T06:11:46;15.10;99.90
54930;DHT22;40833;53.238;6.576;2022-07-04T06:14:12;15.10;99.90
54930;DHT22;40833;53.238;6.576;2022-07-04T06:16:37;15.20;99.90
54930;DHT22;40833;53.238;6.576;2022-07-04T06:19:03;15.30;99.90
54930;DHT22;40833;53.238;6.576;2022-07-04T06:21:29;15.30;99.90
54930;DHT22;40833;53.238;6.576;2022-07-04T06:23:54;15.40;99.90
54930;DHT22;40833;53.238;6.576;2022-07-04T06:26:20;15.50;99.90
54930;DHT22;40833;53.238;6.576;2022-07-04T06:28:46;15.50;99.90
54930;DHT22;40833;53.238;6.576;2022-07-04T06:31:12;15.60;99.90
54930;DHT22;40833;53.238;6.576;2022-07-04T06:33:38;15.70;99.90
54930;DHT22;40833;53.238;6.576;2022-07-04T06:36:22;15.90;99.90
54930;DHT22;40833;53.238;6.576;2022-07-04T06:38:47;16.00;99.90
54930;DHT22;40833;53.238;6.576;2022-07-04T06:41:13;16.10;99.90
54930;DHT22;40833;53.238;6.576;2022-07-04T06:43:39;16.20;99.90
54930;DHT22;40833;53.238;6.576;2022-07-04T06:46:05;16.20;99.90
54930;DHT22;40833;53.238;6.576;2022-07-04T06:48:30;16.30;99.90
54930;DHT22;40833;53.238;6.576;2022-07-04T06:50:56;16.40;99.90
54930;DHT22;40833;53.238;6.576;2022-07-04T06:53:22;16.50;99.90
54930;DHT22;40833;53.238;6.576;2022-07-04T06:55:47;16.50;99.90
54930;DHT22;40833;53.238;6.576;2022-07-04T06:58:14;16.60;99.90
54930;DHT22;40833;53.238;6.576;2022-07-04T07:00:40;16.70;99.90
54930;DHT22;40833;53.238;6.576;2022-07-04T07:03:06;16.80;99.90
54930;DHT22;40833;53.238;6.576;2022-07-04T07:05:32;16.90;99.90
54930;DHT22;40833;53.238;6.576;2022-07-04T07:07:58;16.90;99.90
54930;DHT22;40833;53.238;6.576;2022-07-04T07:10:24;17.00;99.90
54930;DHT22;40833;53.238;6.576;2022-07-04T07:12:50;17.00;99.90
54930;DHT22;40833;53.238;6.576;2022-07-04T07:15:15;17.10;99.90
54930;DHT22;40833;53.238;6.576;2022-07-04T07:17:42;17.10;99.90
54930;DHT22;40833;53.238;6.576;2022-07-04T07:20:09;17.30;99.90
54930;DHT22;40833;53.238;6.576;2022-07-04T07:22:34;17.40;99.90
54930;DHT22;40833;53.238;6.576;2022-07-04T07:25:00;17.60;99.90
54930;DHT22;40833;53.238;6.576;2022-07-04T07:27:26;17.80;99.90
54930;DHT22;40833;53.238;6.576;2022-07-04T07:29:51;18.00;99.90
54930;DHT22;40833;53.238;6.576;2022-07-04T07:32:17;18.00;99.90
54930;DHT22;40833;53.238;6.576;2022-07-04T07:34:43;18.00;99.90
54930;DHT22;40833;53.238;6.576;2022-07-04T07:37:09;18.00;99.90
54930;DHT22;40833;53.238;6.576;2022-07-04T07:39:35;18.00;99.90
54930;DHT22;40833;53.238;6.576;2022-07-04T07:42:01;18.10;99.90
54930;DHT22;40833;53.238;6.576;2022-07-04T07:44:26;18.20;99.90
54930;DHT22;40833;53.238;6.576;2022-07-04T07:46:52;18.30;99.90
54930;DHT22;40833;53.238;6.576;2022-07-04T07:49:18;18.40;99.90
54930;DHT22;40833;53.238;6.576;2022-07-04T07:51:44;18.50;99.90
54930;DHT22;40833;53.238;6.576;2022-07-04T07:54:10;18.70;99.90
54930;DHT22;40833;53.238;6.576;2022-07-04T07:56:36;18.70;99.90
54930;DHT22;40833;53.238;6.576;2022-07-04T07:59:01;18.50;99.90
54930;DHT22;40833;53.238;6.576;2022-07-04T08:01:27;18.40;99.90
54930;DHT22;40833;53.238;6.576;2022-07-04T08:03:53;18.20;99.90
54930;DHT22;40833;53.238;6.576;2022-07-04T08:06:37;18.10;99.90
54930;DHT22;40833;53.238;6.576;2022-07-04T08:09:03;18.00;99.90
54930;DHT22;40833;53.238;6.576;2022-07-04T08:11:28;17.90;99.90
54930;DHT22;40833;53.238;6.576;2022-07-04T08:13:54;17.90;99.90
54930;DHT22;40833;53.238;6.576;2022-07-04T08:16:20;17.90;99.90
54930;DHT22;40833;53.238;6.576;2022-07-04T08:18:46;17.90;99.90
54930;DHT22;40833;53.238;6.576;2022-07-04T08:21:12;17.90;99.90
54930;DHT22;40833;53.238;6.576;2022-07-04T08:23:39;17.90;99.90
54930;DHT22;40833;53.238;6.576;2022-07-04T08:26:05;18.00;99.90
54930;DHT22;40833;53.238;6.576;2022-07-04T08:28:31;18.00;99.90
54930;DHT22;40833;53.238;6.576;2022-07-04T08:30:57;18.20;99.90
54930;DHT22;40833;53.238;6.576;2022-07-04T08:33:23;18.30;99.90
54930;DHT22;40833;53.238;6.576;2022-07-04T08:35:49;18.40;99.90
54930;DHT22;40833;53.238;6.576;2022-07-04T08:38:16;18.70;99.90
54930;DHT22;40833;53.238;6.576;2022-07-04T08:40:43;18.90;99.90
54930;DHT22;40833;53.238;6.576;2022-07-04T08:43:13;19.10;99.90
54930;DHT22;40833;53.238;6.576;2022-07-04T08:45:40;19.10;99.90
54930;DHT22;40833;53.238;6.576;2022-07-04T08:48:08;19.00;99.90
54930;DHT22;40833;53.238;6.576;2022-07-04T08:50:39;19.00;99.90
54930;DHT22;40833;53.238;6.576;2022-07-04T08:53:13;19.10;99.90
54930;DHT22;40833;53.238;6.576;2022-07-04T08:55:41;19.10;99.90
54930;DHT22;40833;53.238;6.576;2022-07-04T08:58:25;19.30;99.90
54930;DHT22;40833;53.238;6.576;2022-07-04T09:00:55;19.30;99.90
54930;DHT22;40833;53.238;6.576;2022-07-04T09:03:21;19.70;99.90
54930;DHT22;40833;53.238;6.576;2022-07-04T09:05:48;19.50;99.90
54930;DHT22;40833;53.238;6.576;2022-07-04T09:08:15;19.50;99.90
54930;DHT22;40833;53.238;6.576;2022-07-04T09:10:41;19.50;99.90
54930;DHT22;40833;53.238;6.576;2022-07-04T09:13:08;19.10;99.90
54930;DHT22;40833;53.238;6.576;2022-07-04T09:15:34;19.50;99.90
54930;DHT22;40833;53.238;6.576;2022-07-04T09:18:01;19.60;99.90
54930;DHT22;40833;53.238;6.576;2022-07-04T09:20:29;19.70;99.90
54930;DHT22;40833;53.238;6.576;2022-07-04T09:22:55;19.80;99.90
54930;DHT22;40833;53.238;6.576;2022-07-04T09:25:23;19.90;99.90
54930;DHT22;40833;53.238;6.576;2022-07-04T09:27:56;20.00;99.90
54930;DHT22;40833;53.238;6.576;2022-07-04T09:30:27;20.00;99.90
54930;DHT22;40833;53.238;6.576;2022-07-04T09:32:55;20.10;99.90
54930;DHT22;40833;53.238;6.576;2022-07-04T09:35:29;20.20;99.90
54930;DHT22;40833;53.238;6.576;2022-07-04T09:38:02;20.30;99.90
54930;DHT22;40833;53.238;6.576;2022-07-04T09:40:33;20.20;99.90
54930;DHT22;40833;53.238;6.576;2022-07-04T09:43:19;20.30;99.90
54930;DHT22;40833;53.238;6.576;2022-07-04T09:45:59;20.10;99.90
54930;DHT22;40833;53.238;6.576;2022-07-04T09:48:48;20.00;99.90
54930;DHT22;40833;53.238;6.576;2022-07-04T09:51:14;20.00;99.90
54930;DHT22;40833;53.238;6.576;2022-07-04T09:53:40;20.10;99.90
54930;DHT22;40833;53.238;6.576;2022-07-04T09:56:06;20.30;99.90
54930;DHT22;40833;53.238;6.576;2022-07-04T09:58:31;20.40;99.90
54930;DHT22;40833;53.238;6.576;2022-07-04T10:00:59;20.60;99.90
54930;DHT22;40833;53.238;6.576;2022-07-04T10:03:31;20.70;99.90
54930;DHT22;40833;53.238;6.576;2022-07-04T10:06:06;20.90;99.90
54930;DHT22;40833;53.238;6.576;2022-07-04T10:08:32;21.20;99.90
54930;DHT22;40833;53.238;6.576;2022-07-04T10:11:03;21.40;99.90
54930;DHT22;40833;53.238;6.576;2022-07-04T10:13:29;21.50;99.90
54930;DHT22;40833;53.238;6.576;2022-07-04T10:15:55;21.70;99.90
54930;DHT22;40833;53.238;6.576;2022-07-04T10:18:22;21.80;99.90
54930;DHT22;40833;53.238;6.576;2022-07-04T10:20:49;21.60;99.90
54930;DHT22;40833;53.238;6.576;2022-07-04T10:23:16;21.60;99.90
54930;DHT22;40833;53.238;6.576;2022-07-04T10:25:42;21.70;99.90
54930;DHT22;40833;53.238;6.576;2022-07-04T10:28:09;21.70;99.90
54930;DHT22;40833;53.238;6.576;2022-07-04T10:30:36;21.60;99.90
54930;DHT22;40833;53.238;6.576;2022-07-04T10:33:05;21.40;99.90
54930;DHT22;40833;53.238;6.576;2022-07-04T10:38:14;21.10;99.90
54930;DHT22;40833;53.238;6.576;2022-07-04T10:49:07;21.70;99.90
54930;DHT22;40833;53.238;6.576;2022-07-04T10:51:52;21.80;99.90
54930;DHT22;40833;53.238;6.576;2022-07-04T10:54:34;21.70;99.90
54930;DHT22;40833;53.238;6.576;2022-07-04T10:57:31;21.50;99.90
54930;DHT22;40833;53.238;6.576;2022-07-04T11:02:32;21.10;99.90
54930;DHT22;40833;53.238;6.576;2022-07-04T11:05:02;21.20;99.90
54930;DHT22;40833;53.238;6.576;2022-07-04T11:13:06;21.60;99.90
54930;DHT22;40833;53.238;6.576;2022-07-04T11:18:17;21.50;99.90
54930;DHT22;40833;53.238;6.576;2022-07-04T11:20:45;21.40;99.90
54930;DHT22;40833;53.238;6.576;2022-07-04T11:23:16;21.30;99.90
54930;DHT22;40833;53.238;6.576;2022-07-04T11:25:47;21.40;99.90
54930;DHT22;40833;53.238;6.576;2022-07-04T11:28:24;21.60;99.90
54930;DHT22;40833;53.238;6.576;2022-07-04T11:30:51;21.90;99.90
54930;DHT22;40833;53.238;6.576;2022-07-04T11:33:19;21.90;99.90
54930;DHT22;40833;53.238;6.576;2022-07-04T11:38:52;21.90;99.90
54930;DHT22;40833;53.238;6.576;2022-07-04T11:44:12;21.60;99.90
54930;DHT22;40833;53.238;6.576;2022-07-04T11:49:49;21.60;99.90
54930;DHT22;40833;53.238;6.576;2022-07-04T11:52:18;21.60;99.90
54930;DHT22;40833;53.238;6.576;2022-07-04T11:54:46;21.80;99.90
54930;DHT22;40833;53.238;6.576;2022-07-04T12:02:29;21.90;98.90
54930;DHT22;40833;53.238;6.576;2022-07-04T12:04:56;21.80;99.00
54930;DHT22;40833;53.238;6.576;2022-07-04T12:07:25;21.70;98.20
54930;DHT22;40833;53.238;6.576;2022-07-04T12:09:52;22.60;99.70
54930;DHT22;40833;53.238;6.576;2022-07-04T12:12:18;21.80;97.40
54930;DHT22;40833;53.238;6.576;2022-07-04T12:15:16;21.80;98.50
54930;DHT22;40833;53.238;6.576;2022-07-04T12:17:42;21.70;97.70
54930;DHT22;40833;53.238;6.576;2022-07-04T12:20:15;21.80;97.80
54930;DHT22;40833;53.238;6.576;2022-07-04T12:22:54;22.00;96.80
54930;DHT22;40833;53.238;6.576;2022-07-04T12:25:25;21.90;96.80
54930;DHT22;40833;53.238;6.576;2022-07-04T12:28:03;22.10;97.80
54930;DHT22;40833;53.238;6.576;2022-07-04T12:30:34;22.20;96.70
54930;DHT22;40833;53.238;6.576;2022-07-04T12:33:09;22.20;95.80
54930;DHT22;40833;53.238;6.576;2022-07-04T12:38:10;22.10;97.50
54930;DHT22;40833;53.238;6.576;2022-07-04T12:40:49;22.30;99.20
54930;DHT22;40833;53.238;6.576;2022-07-04T12:43:15;22.40;96.80
54930;DHT22;40833;53.238;6.576;2022-07-04T12:45:49;22.50;95.80
54930;DHT22;40833;53.238;6.576;2022-07-04T12:48:17;22.60;97.10
54930;DHT22;40833;53.238;6.576;2022-07-04T12:50:43;22.70;96.70
54930;DHT22;40833;53.238;6.576;2022-07-04T12:53:09;22.80;98.80
54930;DHT22;40833;53.238;6.576;2022-07-04T12:55:38;22.80;98.10
54930;DHT22;40833;53.238;6.576;2022-07-04T12:58:05;22.70;98.70
54930;DHT22;40833;53.238;6.576;2022-07-04T13:00:31;22.40;96.70
54930;DHT22;40833;53.238;6.576;2022-07-04T13:02:56;22.20;97.60
54930;DHT22;40833;53.238;6.576;2022-07-04T13:05:22;22.30;97.50
54930;DHT22;40833;53.238;6.576;2022-07-04T13:07:48;22.50;98.40
54930;DHT22;40833;53.238;6.576;2022-07-04T13:10:14;22.60;96.90
54930;DHT22;40833;53.238;6.576;2022-07-04T13:12:40;23.00;97.80
54930;DHT22;40833;53.238;6.576;2022-07-04T13:15:06;23.10;95.50
54930;DHT22;40833;53.238;6.576;2022-07-04T13:17:35;23.00;93.70
54930;DHT22;40833;53.238;6.576;2022-07-04T13:20:01;23.10;94.30
54930;DHT22;40833;53.238;6.576;2022-07-04T13:22:27;23.20;95.30
54930;DHT22;40833;53.238;6.576;2022-07-04T13:24:53;23.40;94.80
54930;DHT22;40833;53.238;6.576;2022-07-04T13:27:19;23.70;93.80
54930;DHT22;40833;53.238;6.576;2022-07-04T13:29:45;23.80;94.80
54930;DHT22;40833;53.238;6.576;2022-07-04T13:32:11;23.50;93.70
54930;DHT22;40833;53.238;6.576;2022-07-04T13:34:37;23.50;92.90
54930;DHT22;40833;53.238;6.576;2022-07-04T13:37:03;23.60;93.90
54930;DHT22;40833;53.238;6.576;2022-07-04T13:39:29;23.70;94.20
54930;DHT22;40833;53.238;6.576;2022-07-04T13:41:55;23.60;92.50
54930;DHT22;40833;53.238;6.576;2022-07-04T13:44:21;23.30;90.90
54930;DHT22;40833;53.238;6.576;2022-07-04T13:46:46;23.20;92.70
54930;DHT22;40833;53.238;6.576;2022-07-04T13:49:12;23.20;92.90
54930;DHT22;40833;53.238;6.576;2022-07-04T13:51:41;23.20;93.10
54930;DHT22;40833;53.238;6.576;2022-07-04T13:54:08;23.30;92.30
54930;DHT22;40833;53.238;6.576;2022-07-04T13:56:34;23.20;92.50
54930;DHT22;40833;53.238;6.576;2022-07-04T13:59:01;23.20;92.20
54930;DHT22;40833;53.238;6.576;2022-07-04T14:01:27;23.30;91.40
54930;DHT22;40833;53.238;6.576;2022-07-04T14:03:53;23.60;92.30
54930;DHT22;40833;53.238;6.576;2022-07-04T14:06:19;23.70;91.80
54930;DHT22;40833;53.238;6.576;2022-07-04T14:08:45;23.50;91.70
54930;DHT22;40833;53.238;6.576;2022-07-04T14:11:11;23.30;92.00
54930;DHT22;40833;53.238;6.576;2022-07-04T14:13:37;23.40;91.00
54930;DHT22;40833;53.238;6.576;2022-07-04T14:16:04;23.50;91.30
54930;DHT22;40833;53.238;6.576;2022-07-04T14:18:34;23.30;91.20
54930;DHT22;40833;53.238;6.576;2022-07-04T14:21:00;23.10;92.00
54930;DHT22;40833;53.238;6.576;2022-07-04T14:23:26;23.10;92.30
54930;DHT22;40833;53.238;6.576;2022-07-04T14:26:11;23.20;91.50
54930;DHT22;40833;53.238;6.576;2022-07-04T14:28:38;23.40;91.10
54930;DHT22;40833;53.238;6.576;2022-07-04T14:31:04;23.60;91.00
54930;DHT22;40833;53.238;6.576;2022-07-04T14:33:30;23.80;91.00
54930;DHT22;40833;53.238;6.576;2022-07-04T14:35:55;23.80;90.50
54930;DHT22;40833;53.238;6.576;2022-07-04T14:38:21;24.00;89.40
54930;DHT22;40833;53.238;6.576;2022-07-04T14:40:47;23.90;89.30
54930;DHT22;40833;53.238;6.576;2022-07-04T14:43:15;23.80;90.40
54930;DHT22;40833;53.238;6.576;2022-07-04T14:45:44;23.80;90.30
54930;DHT22;40833;53.238;6.576;2022-07-04T14:48:15;23.80;90.60
54930;DHT22;40833;53.238;6.576;2022-07-04T14:50:42;23.80;90.50
54930;DHT22;40833;53.238;6.576;2022-07-04T14:53:08;24.30;90.40
54930;DHT22;40833;53.238;6.576;2022-07-04T14:55:34;24.50;89.50
54930;DHT22;40833;53.238;6.576;2022-07-04T14:58:00;24.90;89.10
54930;DHT22;40833;53.238;6.576;2022-07-04T15:00:25;25.00;88.20
54930;DHT22;40833;53.238;6.576;2022-07-04T15:02:52;25.30;87.50
54930;DHT22;40833;53.238;6.576;2022-07-04T15:05:18;25.60;86.30
54930;DHT22;40833;53.238;6.576;2022-07-04T15:07:43;25.40;84.10
54930;DHT22;40833;53.238;6.576;2022-07-04T15:10:09;25.20;84.50
54930;DHT22;40833;53.238;6.576;2022-07-04T15:12:35;25.30;83.10
54930;DHT22;40833;53.238;6.576;2022-07-04T15:15:01;25.60;84.20
54930;DHT22;40833;53.238;6.576;2022-07-04T15:17:27;25.80;82.90
54930;DHT22;40833;53.238;6.576;2022-07-04T15:19:52;25.90;81.40
54930;DHT22;40833;53.238;6.576;2022-07-04T15:22:37;25.80;80.70
54930;DHT22;40833;53.238;6.576;2022-07-04T15:25:21;25.80;79.70
54930;DHT22;40833;53.238;6.576;2022-07-04T15:29:49;25.70;79.30
54930;DHT22;40833;53.238;6.576;2022-07-04T15:32:14;25.00;79.20
54930;DHT22;40833;53.238;6.576;2022-07-04T15:34:41;25.30;79.80
54930;DHT22;40833;53.238;6.576;2022-07-04T15:46:27;25.60;80.50
54930;DHT22;40833;53.238;6.576;2022-07-04T15:48:52;23.80;84.80
54930;DHT22;40833;53.238;6.576;2022-07-04T15:51:18;23.40;85.20
54930;DHT22;40833;53.238;6.576;2022-07-04T15:53:44;23.20;86.10
54930;DHT22;40833;53.238;6.576;2022-07-04T15:56:09;23.10;86.80
54930;DHT22;40833;53.238;6.576;2022-07-04T15:58:35;23.70;87.90
54930;DHT22;40833;53.238;6.576;2022-07-04T16:01:01;24.10;86.70
54930;DHT22;40833;53.238;6.576;2022-07-04T16:03:26;24.80;87.70
54930;DHT22;40833;53.238;6.576;2022-07-04T16:05:52;25.40;86.10
54930;DHT22;40833;53.238;6.576;2022-07-04T16:08:17;25.00;83.70
54930;DHT22;40833;53.238;6.576;2022-07-04T16:10:43;24.50;84.30
54930;DHT22;40833;53.238;6.576;2022-07-04T16:13:09;24.20;84.70
54930;DHT22;40833;53.238;6.576;2022-07-04T16:15:34;24.30;85.40
54930;DHT22;40833;53.238;6.576;2022-07-04T16:18:00;24.70;85.00
54930;DHT22;40833;53.238;6.576;2022-07-04T16:20:26;25.00;85.40